Terminal Aerodrome Forecast
Issued by NWS

Home | Current Version | Previous Version | Text Only | Print | Product List | Glossary On
Versions: 1 2 3 4 5 6 7 8 9 10 11 12 13 14 15 16 17 18 19 20 21 22 23
000
FTUS41 KBGM 251100
TAFRME
TAF
KRME 251126Z 2512/2612 23005KT P6SM OVC015
      TEMPO 2512/2515 SCT015 OVC025
     FM251500 25012G22KT P6SM SCT025 OVC040
     FM260000 29010KT P6SM -SHRA OVC025
      TEMPO 2608/2612 OVC015=

USA.gov is the U.S. government's official web portal to all federal, state and local government web resources and services.